createdAt,value
2018-08-24T00:01:32.215Z,23.47
2018-08-24T00:04:04.818Z,23.39
2018-08-24T00:06:33.168Z,23.30
2018-08-24T00:09:01.539Z,23.41
2018-08-24T00:11:29.891Z,23.26
2018-08-24T00:13:58.705Z,23.22
2018-08-24T00:16:33.048Z,23.17
2018-08-24T00:19:01.398Z,23.19
2018-08-24T00:21:29.715Z,23.11
2018-08-24T00:23:58.064Z,23.08
2018-08-24T00:26:26.380Z,23.07
2018-08-24T00:28:55.815Z,22.98
2018-08-24T00:31:24.740Z,23.06
2018-08-24T00:33:53.339Z,22.90
2018-08-24T00:36:23.342Z,22.85
2018-08-24T00:38:51.720Z,22.82
2018-08-24T00:41:20.112Z,22.76
2018-08-24T00:43:48.596Z,22.77
2018-08-24T00:46:16.948Z,22.66
2018-08-24T00:48:45.763Z,22.66
2018-08-24T00:51:14.082Z,22.70
2018-08-24T00:53:42.408Z,22.54
2018-08-24T00:56:11.735Z,22.55
2018-08-24T00:58:40.399Z,22.48
2018-08-24T01:01:09.309Z,22.47
2018-08-24T01:03:38.084Z,22.46
2018-08-24T01:06:07.049Z,22.43
2018-08-24T01:08:35.789Z,22.36
2018-08-24T01:11:04.342Z,22.34
2018-08-24T01:13:32.820Z,22.32
2018-08-24T01:16:02.256Z,22.38
2018-08-24T01:18:36.025Z,22.35
2018-08-24T01:21:04.613Z,22.33
2018-08-24T01:23:34.643Z,22.34
2018-08-24T01:26:03.303Z,22.28
2018-08-24T01:28:32.610Z,22.31
2018-08-24T01:31:04.242Z,22.27
2018-08-24T01:33:32.966Z,22.24
2018-08-24T01:36:01.298Z,22.21
2018-08-24T01:38:29.640Z,22.16
2018-08-24T01:40:58.907Z,22.16
2018-08-24T01:43:27.225Z,22.17
2018-08-24T01:46:01.882Z,22.10
2018-08-24T01:48:30.229Z,22.14
2018-08-24T01:50:59.564Z,22.15
2018-08-24T01:53:27.922Z,22.11
2018-08-24T01:55:56.556Z,22.04
2018-08-24T01:58:24.983Z,22.04
2018-08-24T02:00:53.342Z,22.06
2018-08-24T02:03:22.303Z,22.01
2018-08-24T02:05:50.624Z,22.05
2018-08-24T02:08:18.992Z,21.92
2018-08-24T02:10:47.336Z,22.01
2018-08-24T02:13:21.150Z,22.01
2018-08-24T02:15:49.499Z,22.01
2018-08-24T02:19:27.008Z,21.94
2018-08-24T02:22:00.948Z,21.96
2018-08-24T02:24:29.283Z,21.88
2018-08-24T02:26:57.636Z,21.92
2018-08-24T02:29:25.977Z,21.94
2018-08-24T02:31:54.592Z,21.91
2018-08-24T02:34:22.933Z,21.85
2018-08-24T02:36:51.347Z,21.84
2018-08-24T02:39:20.513Z,21.82
2018-08-24T02:41:48.909Z,21.69
2018-08-24T02:44:17.338Z,21.74
2018-08-24T02:46:45.687Z,21.79
2018-08-24T02:49:14.039Z,21.77
2018-08-24T02:51:43.400Z,21.76
2018-08-24T02:54:12.626Z,21.78
2018-08-24T02:56:41.413Z,21.67
2018-08-24T02:59:09.732Z,21.69
2018-08-24T03:01:38.115Z,21.69
2018-08-24T03:04:06.672Z,21.64
2018-08-24T03:06:35.009Z,21.62
2018-08-24T03:09:03.440Z,21.63
2018-08-24T03:11:31.832Z,21.61
2018-08-24T03:14:00.185Z,21.58
2018-08-24T03:16:28.706Z,21.59
2018-08-24T03:18:56.979Z,21.55
2018-08-24T03:21:25.339Z,21.55
2018-08-24T03:23:53.691Z,21.51
2018-08-24T03:26:22.041Z,21.49
2018-08-24T03:28:50.789Z,21.49
2018-08-24T03:31:19.133Z,21.47
2018-08-24T03:33:47.482Z,21.43
2018-08-24T03:36:15.820Z,21.46
2018-08-24T03:38:44.169Z,21.45
2018-08-24T03:41:12.483Z,21.46
2018-08-24T03:43:40.899Z,21.41
2018-08-24T03:46:09.243Z,21.38
2018-08-24T03:48:37.601Z,21.42
2018-08-24T03:51:05.960Z,21.31
2018-08-24T03:53:34.308Z,21.28
2018-08-24T03:56:02.648Z,21.28
2018-08-24T03:58:30.998Z,21.28
2018-08-24T04:00:59.812Z,21.24
2018-08-24T04:03:29.216Z,21.27
2018-08-24T04:05:57.579Z,21.21
2018-08-24T04:08:26.063Z,21.12
2018-08-24T04:10:54.936Z,21.18
2018-08-24T04:13:23.286Z,21.13
2018-08-24T04:15:51.624Z,21.13
2018-08-24T04:18:19.945Z,21.11
2018-08-24T04:20:48.319Z,21.07
2018-08-24T04:23:16.673Z,21.09
2018-08-24T04:25:45.056Z,21.09
2018-08-24T04:28:13.402Z,21.04
2018-08-24T04:30:41.779Z,21.06
2018-08-24T04:33:10.175Z,21.00
2018-08-24T04:35:38.567Z,21.04
2018-08-24T04:38:06.929Z,21.08
2018-08-24T04:40:35.316Z,21.10
2018-08-24T04:43:03.735Z,21.09
2018-08-24T04:45:32.143Z,21.06
2018-08-24T04:48:00.494Z,21.11
2018-08-24T04:50:29.283Z,21.06
2018-08-24T04:52:57.661Z,21.04
2018-08-24T04:55:26.007Z,21.09
2018-08-24T04:57:54.352Z,21.07
2018-08-24T05:00:23.277Z,21.07
2018-08-24T05:02:51.657Z,21.07
2018-08-24T05:05:19.993Z,21.09
2018-08-24T05:07:48.349Z,21.07
2018-08-24T05:10:16.725Z,21.10
2018-08-24T05:12:45.088Z,21.03
2018-08-24T05:15:13.464Z,21.06
2018-08-24T05:17:41.891Z,21.03
2018-08-24T05:20:10.241Z,21.05
2018-08-24T05:22:38.621Z,21.08
2018-08-24T05:25:07.230Z,21.14
2018-08-24T05:27:35.612Z,21.13
2018-08-24T05:30:03.957Z,21.19
2018-08-24T05:32:32.339Z,21.14
2018-08-24T05:35:00.746Z,21.22
2018-08-24T05:37:29.096Z,21.20
2018-08-24T05:39:57.475Z,21.20
2018-08-24T05:42:25.825Z,21.24
2018-08-24T05:44:54.195Z,21.26
2018-08-24T05:47:22.566Z,21.28
2018-08-24T05:49:50.919Z,21.39
2018-08-24T05:52:19.406Z,21.47
2018-08-24T05:54:47.780Z,21.50
2018-08-24T05:57:16.108Z,21.49
2018-08-24T05:59:44.537Z,21.49
2018-08-24T06:02:12.892Z,21.48
2018-08-24T06:04:41.259Z,21.43
2018-08-24T06:07:09.651Z,21.49
2018-08-24T06:09:37.995Z,21.54
2018-08-24T06:12:06.408Z,21.62
2018-08-24T06:14:34.819Z,21.70
2018-08-24T06:17:08.591Z,21.77
2018-08-24T06:19:37.484Z,21.83
2018-08-24T06:22:05.960Z,21.89
2018-08-24T06:24:35.911Z,21.89
2018-08-24T06:27:04.222Z,22.03
2018-08-24T06:29:32.573Z,22.15
2018-08-24T06:32:01.119Z,22.13
2018-08-24T06:34:30.833Z,22.17
2018-08-24T06:36:59.212Z,22.29
2018-08-24T06:39:27.554Z,22.40
2018-08-24T06:41:56.179Z,22.39
2018-08-24T06:44:24.602Z,22.44
2018-08-24T06:46:53.031Z,22.48
2018-08-24T06:49:22.361Z,22.62
2018-08-24T06:51:50.759Z,22.79
2018-08-24T06:54:19.118Z,23.03
2018-08-24T06:56:47.469Z,23.27
2018-08-24T06:59:15.849Z,23.26
2018-08-24T07:01:44.190Z,23.15
2018-08-24T07:04:12.572Z,23.14
2018-08-24T07:06:41.048Z,23.09
2018-08-24T07:09:09.877Z,23.14
2018-08-24T07:11:38.280Z,23.19
2018-08-24T07:14:06.614Z,23.25
2018-08-24T07:16:34.944Z,23.32
2018-08-24T07:19:03.289Z,23.51
2018-08-24T07:21:31.670Z,23.71
2018-08-24T07:24:00.024Z,23.86
2018-08-24T07:26:28.433Z,24.27
2018-08-24T07:28:56.787Z,24.44
2018-08-24T07:31:25.158Z,24.62
2018-08-24T07:33:53.545Z,24.95
2018-08-24T07:36:21.924Z,25.08
2018-08-24T07:38:50.341Z,25.27
2018-08-24T07:41:18.822Z,25.47
2018-08-24T07:43:47.257Z,25.77
2018-08-24T07:46:15.684Z,25.77
2018-08-24T07:48:44.040Z,25.67
2018-08-24T07:51:12.367Z,25.70
2018-08-24T07:53:40.750Z,25.64
2018-08-24T07:56:09.097Z,25.58
2018-08-24T07:58:37.428Z,25.33
2018-08-24T08:01:05.956Z,25.16
2018-08-24T08:03:34.336Z,25.15
2018-08-24T08:06:02.684Z,25.09
2018-08-24T08:08:31.024Z,24.91
2018-08-24T08:10:59.559Z,24.73
2018-08-24T08:13:27.907Z,24.54
2018-08-24T08:15:56.303Z,24.44
2018-08-24T08:18:24.697Z,24.35
2018-08-24T08:20:53.118Z,24.13
2018-08-24T08:23:21.454Z,24.08
2018-08-24T08:25:49.801Z,23.92
2018-08-24T08:28:18.180Z,23.77
2018-08-24T08:30:46.560Z,23.96
2018-08-24T08:33:14.910Z,23.95
2018-08-24T08:35:43.259Z,24.21
2018-08-24T08:38:11.627Z,24.33
2018-08-24T08:40:39.975Z,24.62
2018-08-24T08:43:08.331Z,24.82
2018-08-24T08:45:36.704Z,24.91
2018-08-24T08:48:05.042Z,25.00
2018-08-24T08:50:33.386Z,24.79
2018-08-24T08:53:01.732Z,24.91
2018-08-24T08:55:30.091Z,25.08
2018-08-24T08:57:58.432Z,25.43
2018-08-24T09:00:26.794Z,25.41
2018-08-24T09:02:55.176Z,25.75
2018-08-24T09:05:23.561Z,25.71
2018-08-24T09:07:51.911Z,26.58
2018-08-24T09:10:20.259Z,26.81
2018-08-24T09:12:48.655Z,27.16
2018-08-24T09:15:17.076Z,26.76
2018-08-24T09:17:50.829Z,27.07
2018-08-24T09:20:24.559Z,27.44
2018-08-24T09:22:58.240Z,27.08
2018-08-24T09:25:32.011Z,26.74
2018-08-24T09:28:05.739Z,26.79
2018-08-24T09:30:39.316Z,26.61
2018-08-24T09:33:07.729Z,26.91
2018-08-24T09:35:36.061Z,26.77
2018-08-24T09:38:04.736Z,27.29
2018-08-24T09:40:38.519Z,27.43
2018-08-24T09:43:12.359Z,27.20
2018-08-24T09:45:40.604Z,26.95
2018-08-24T09:48:14.315Z,26.92
2018-08-24T09:50:47.978Z,26.61
2018-08-24T09:53:21.721Z,26.64
2018-08-24T09:55:50.063Z,26.50
2018-08-24T09:58:18.409Z,26.32
2018-08-24T10:00:52.177Z,26.35
2018-08-24T10:04:24.657Z,26.22
2018-08-24T10:06:58.365Z,25.91
2018-08-24T10:09:26.726Z,25.59
2018-08-24T10:11:55.053Z,25.79
2018-08-24T10:14:23.428Z,25.73
2018-08-24T10:16:51.757Z,25.47
2018-08-24T10:19:20.086Z,25.12
2018-08-24T10:21:48.435Z,25.25
2018-08-24T10:24:16.783Z,25.06
2018-08-24T10:26:45.190Z,24.76
2018-08-24T10:29:13.550Z,24.45
2018-08-24T10:31:41.872Z,24.51
2018-08-24T10:34:10.184Z,24.35
2018-08-24T10:36:38.586Z,24.11
2018-08-24T10:39:08.540Z,23.92
2018-08-24T10:41:36.873Z,23.82
2018-08-24T10:44:05.206Z,23.78
2018-08-24T10:46:33.556Z,23.65
2018-08-24T10:49:01.882Z,23.56
2018-08-24T10:51:30.205Z,23.39
2018-08-24T10:53:58.524Z,23.42
2018-08-24T10:56:26.864Z,23.50
2018-08-24T10:58:55.212Z,23.35
2018-08-24T11:01:23.625Z,23.25
2018-08-24T11:03:51.932Z,22.86
2018-08-24T11:06:20.322Z,22.71
2018-08-24T11:08:48.655Z,22.52
2018-08-24T11:11:16.979Z,22.40
2018-08-24T11:13:45.346Z,22.43
2018-08-24T11:16:13.844Z,22.51
2018-08-24T11:18:42.154Z,22.52
2018-08-24T11:21:10.481Z,22.64
2018-08-24T11:23:38.949Z,22.64
2018-08-24T11:26:07.277Z,22.68
2018-08-24T11:28:35.625Z,22.60
2018-08-24T11:31:03.963Z,22.55
2018-08-24T11:33:32.316Z,22.46
2018-08-24T11:36:00.757Z,22.33
2018-08-24T11:38:29.005Z,22.15
2018-08-24T11:40:57.510Z,22.17
2018-08-24T11:43:25.864Z,21.89
2018-08-24T11:45:54.196Z,21.99
2018-08-24T11:48:22.521Z,22.13
2018-08-24T11:50:50.865Z,22.13
2018-08-24T11:53:19.209Z,22.18
2018-08-24T11:55:47.555Z,22.16
2018-08-24T11:58:15.904Z,22.09
2018-08-24T12:00:44.282Z,22.28
2018-08-24T12:03:12.619Z,22.34
2018-08-24T12:05:40.969Z,22.42
2018-08-24T12:08:09.513Z,22.52
2018-08-24T12:10:37.693Z,22.44
2018-08-24T12:13:06.043Z,22.52
2018-08-24T12:15:34.385Z,22.66
2018-08-24T12:18:03.097Z,22.78
2018-08-24T12:20:31.417Z,22.79
2018-08-24T12:22:59.796Z,22.76
2018-08-24T12:25:28.131Z,22.82
2018-08-24T12:27:56.522Z,22.87
2018-08-24T12:30:24.864Z,22.80
2018-08-24T12:32:53.209Z,22.88
2018-08-24T12:35:21.548Z,22.86
2018-08-24T12:37:49.903Z,22.88
2018-08-24T12:40:18.245Z,22.90
2018-08-24T12:42:46.630Z,22.93
2018-08-24T12:45:15.012Z,22.87
2018-08-24T12:47:43.345Z,22.80
2018-08-24T12:50:11.760Z,22.80
2018-08-24T12:52:40.141Z,22.82
2018-08-24T12:55:08.580Z,22.77
2018-08-24T12:57:36.944Z,22.73
2018-08-24T13:00:05.757Z,22.75
2018-08-24T13:02:34.055Z,22.74
2018-08-24T13:05:02.387Z,22.74
2018-08-24T13:07:30.755Z,22.78
2018-08-24T13:09:59.099Z,22.82
2018-08-24T13:12:27.437Z,22.87
2018-08-24T13:14:55.787Z,22.85
2018-08-24T13:17:24.129Z,22.93
2018-08-24T13:19:52.450Z,22.90
2018-08-24T13:22:20.783Z,22.94
2018-08-24T13:24:49.097Z,22.98
2018-08-24T13:27:17.460Z,22.90
2018-08-24T13:29:45.786Z,22.83
2018-08-24T13:32:14.121Z,22.85
2018-08-24T13:34:43.458Z,22.94
2018-08-24T13:37:11.977Z,22.96
2018-08-24T13:39:40.356Z,23.06
2018-08-24T13:42:08.692Z,23.07
2018-08-24T13:44:37.452Z,23.05
2018-08-24T13:47:05.860Z,23.12
2018-08-24T13:49:34.327Z,23.05
2018-08-24T13:52:02.659Z,23.10
2018-08-24T13:54:31.018Z,23.11
2018-08-24T13:56:59.357Z,23.17
2018-08-24T13:59:27.822Z,23.05
2018-08-24T14:01:56.500Z,23.05
2018-08-24T14:04:24.909Z,23.06
2018-08-24T14:06:53.272Z,23.10
2018-08-24T14:09:21.932Z,23.12
2018-08-24T14:11:50.336Z,23.14
2018-08-24T14:14:19.226Z,23.21
2018-08-24T14:16:47.607Z,23.24
2018-08-24T14:19:15.987Z,23.29
2018-08-24T14:21:44.353Z,23.39
2018-08-24T14:24:12.735Z,23.39
2018-08-24T14:26:41.158Z,23.43
2018-08-24T14:29:09.661Z,23.44
2018-08-24T14:31:38.217Z,23.43
2018-08-24T14:34:06.538Z,23.35
2018-08-24T14:36:35.002Z,23.31
2018-08-24T14:39:03.394Z,23.29
2018-08-24T14:41:31.776Z,23.35
2018-08-24T14:44:00.201Z,23.39
2018-08-24T14:46:28.577Z,23.39
2018-08-24T14:48:56.947Z,23.40
2018-08-24T14:51:25.328Z,23.44
2018-08-24T14:53:53.763Z,23.44
2018-08-24T14:56:22.160Z,23.48
2018-08-24T14:58:50.462Z,23.40
2018-08-24T15:01:18.821Z,23.43
2018-08-24T15:03:47.174Z,23.47
2018-08-24T15:06:15.497Z,23.45
2018-08-24T15:08:44.742Z,23.45
2018-08-24T15:11:13.075Z,23.47
2018-08-24T15:13:41.452Z,23.47
2018-08-24T15:16:09.815Z,23.48
2018-08-24T15:18:38.209Z,23.46
2018-08-24T15:21:06.633Z,23.38
2018-08-24T15:23:34.971Z,23.31
2018-08-24T15:26:03.299Z,23.29
2018-08-24T15:28:31.664Z,23.20
2018-08-24T15:31:00.747Z,23.11
2018-08-24T15:33:29.344Z,23.06
2018-08-24T15:35:58.148Z,23.00
2018-08-24T15:38:26.523Z,23.01
2018-08-24T15:40:54.845Z,22.99
2018-08-24T15:43:23.174Z,22.94
2018-08-24T15:45:51.506Z,22.89
2018-08-24T15:48:19.836Z,22.77
2018-08-24T15:50:48.180Z,22.73
2018-08-24T15:53:16.529Z,22.62
2018-08-24T15:55:44.923Z,22.57
2018-08-24T15:58:13.441Z,22.63
2018-08-24T16:00:42.479Z,22.65
2018-08-24T16:03:10.878Z,22.59
2018-08-24T16:05:39.291Z,22.62
2018-08-24T16:08:07.680Z,22.51
2018-08-24T16:10:36.321Z,22.53
2018-08-24T16:13:04.713Z,22.50
2018-08-24T16:15:33.083Z,22.40
2018-08-24T16:18:06.788Z,22.43
2018-08-24T16:20:35.143Z,22.41
2018-08-24T16:23:03.492Z,22.44
2018-08-24T16:25:31.929Z,22.32
2018-08-24T16:28:00.268Z,22.28
2018-08-24T16:30:28.676Z,22.24
2018-08-24T16:32:57.057Z,22.23
2018-08-24T16:35:25.612Z,22.17
2018-08-24T16:37:54.041Z,22.08
2018-08-24T16:40:22.383Z,22.08
2018-08-24T16:42:50.747Z,22.08
2018-08-24T16:45:19.887Z,22.06
2018-08-24T16:47:48.322Z,22.04
2018-08-24T16:50:16.747Z,22.04
2018-08-24T16:52:45.089Z,22.07
2018-08-24T16:55:13.797Z,22.05
2018-08-24T16:57:42.257Z,22.02
2018-08-24T17:00:10.605Z,22.00
2018-08-24T17:02:39.058Z,21.94
2018-08-24T17:05:07.690Z,21.90
2018-08-24T17:07:36.304Z,21.90
2018-08-24T17:10:05.070Z,21.92
2018-08-24T17:12:33.447Z,21.90
2018-08-24T17:15:01.974Z,21.85
2018-08-24T17:17:30.461Z,21.80
2018-08-24T17:19:58.872Z,21.74
2018-08-24T17:22:27.300Z,21.67
2018-08-24T17:24:55.648Z,21.64
2018-08-24T17:27:24.104Z,21.61
2018-08-24T17:29:52.993Z,21.57
2018-08-24T17:32:21.467Z,21.54
2018-08-24T17:34:50.050Z,21.51
2018-08-24T17:37:18.860Z,21.46
2018-08-24T17:39:47.358Z,21.41
2018-08-24T17:42:15.737Z,21.37
2018-08-24T17:44:44.083Z,21.33
2018-08-24T17:47:12.667Z,21.32
2018-08-24T17:49:41.307Z,21.26
2018-08-24T17:52:09.683Z,21.27
2018-08-24T17:54:38.260Z,21.23
2018-08-24T17:57:06.855Z,21.24
2018-08-24T17:59:35.175Z,21.21
2018-08-24T18:02:03.552Z,21.17
2018-08-24T18:04:32.052Z,21.15
2018-08-24T18:07:00.493Z,21.09
2018-08-24T18:09:28.860Z,21.07
2018-08-24T18:11:57.232Z,21.09
2018-08-24T18:14:25.600Z,21.08
2018-08-24T18:16:54.014Z,20.98
2018-08-24T18:19:22.470Z,20.97
2018-08-24T18:21:50.832Z,20.97
2018-08-24T18:24:19.200Z,20.97
2018-08-24T18:26:47.583Z,20.95
2018-08-24T18:29:15.933Z,20.89
2018-08-24T18:31:44.427Z,20.87
2018-08-24T18:34:12.776Z,20.83
2018-08-24T18:36:41.202Z,20.78
2018-08-24T18:39:11.495Z,20.81
2018-08-24T18:41:39.854Z,20.71
2018-08-24T18:44:08.572Z,20.69
2018-08-24T18:46:36.923Z,20.71
2018-08-24T18:49:05.397Z,20.64
2018-08-24T18:51:33.810Z,20.64
2018-08-24T18:54:02.360Z,20.58
2018-08-24T18:56:30.747Z,20.56
2018-08-24T18:58:59.123Z,20.57
2018-08-24T19:01:27.498Z,20.58
2018-08-24T19:03:55.854Z,20.54
2018-08-24T19:06:24.305Z,20.53
2018-08-24T19:08:52.689Z,20.49
2018-08-24T19:12:26.194Z,20.51
2018-08-24T19:14:55.597Z,20.41
2018-08-24T19:17:29.474Z,20.42
2018-08-24T19:20:03.208Z,20.39
2018-08-24T19:22:31.590Z,20.37
2018-08-24T19:25:00.026Z,20.36
2018-08-24T19:27:33.825Z,20.34
2018-08-24T19:30:07.532Z,20.35
2018-08-24T19:32:35.990Z,20.34
2018-08-24T19:35:04.480Z,20.34
2018-08-24T19:37:32.866Z,20.32
2018-08-24T19:40:06.990Z,20.26
2018-08-24T19:42:35.369Z,20.24
2018-08-24T19:45:03.716Z,20.24
2018-08-24T19:47:37.436Z,20.26
2018-08-24T19:50:06.210Z,20.22
2018-08-24T19:52:35.126Z,20.22
2018-08-24T19:55:03.545Z,20.17
2018-08-24T19:57:37.215Z,20.17
2018-08-24T20:00:05.593Z,20.18
2018-08-24T20:02:33.974Z,20.19
2018-08-24T20:05:03.110Z,20.14
2018-08-24T20:07:36.758Z,20.15
2018-08-24T20:10:07.450Z,20.10
2018-08-24T20:12:35.830Z,20.12
2018-08-24T20:15:09.694Z,20.07
2018-08-24T20:17:38.072Z,20.06
2018-08-24T20:20:07.170Z,20.04
2018-08-24T20:22:35.658Z,20.05
2018-08-24T20:25:04.541Z,20.02
2018-08-24T20:27:32.924Z,20.04
2018-08-24T20:30:01.294Z,20.00
2018-08-24T20:32:29.652Z,20.00
2018-08-24T20:34:57.995Z,19.97
2018-08-24T20:37:26.350Z,19.89
2018-08-24T20:39:54.777Z,19.90
2018-08-24T20:42:23.105Z,19.89
2018-08-24T20:44:51.503Z,19.84
2018-08-24T20:47:19.881Z,19.82
2018-08-24T20:49:48.196Z,19.82
2018-08-24T20:52:16.754Z,19.80
2018-08-24T20:54:45.163Z,19.75
2018-08-24T20:57:13.514Z,19.71
2018-08-24T20:59:41.865Z,19.68
2018-08-24T21:02:10.576Z,19.63
2018-08-24T21:04:38.926Z,19.62
2018-08-24T21:07:07.435Z,19.62
2018-08-24T21:09:35.774Z,19.59
2018-08-24T21:12:04.153Z,19.59
2018-08-24T21:14:32.566Z,19.52
2018-08-24T21:17:00.881Z,19.57
2018-08-24T21:19:29.280Z,19.58
2018-08-24T21:21:57.679Z,19.54
2018-08-24T21:24:26.403Z,19.55
2018-08-24T21:26:54.735Z,19.53
2018-08-24T21:29:24.084Z,19.53
2018-08-24T21:31:52.481Z,19.50
2018-08-24T21:34:21.347Z,19.52
2018-08-24T21:36:49.687Z,19.50
2018-08-24T21:39:18.034Z,19.48
2018-08-24T21:41:46.383Z,19.46
2018-08-24T21:44:14.739Z,19.47
2018-08-24T21:46:43.101Z,19.48
2018-08-24T21:49:11.405Z,19.46
2018-08-24T21:51:39.764Z,19.42
2018-08-24T21:54:08.224Z,19.42
2018-08-24T21:56:36.545Z,19.40
2018-08-24T21:59:04.904Z,19.38
2018-08-24T22:01:33.281Z,19.37
2018-08-24T22:04:01.654Z,19.35
2018-08-24T22:06:29.995Z,19.34
2018-08-24T22:08:58.336Z,19.28
2018-08-24T22:11:26.688Z,19.30
2018-08-24T22:13:55.012Z,19.26
2018-08-24T22:16:23.342Z,19.27
2018-08-24T22:18:51.648Z,19.26
2018-08-24T22:21:20.037Z,19.23
2018-08-24T22:23:48.384Z,19.20
2018-08-24T22:26:16.784Z,19.12
2018-08-24T22:28:45.108Z,19.13
2018-08-24T22:31:13.449Z,19.13
2018-08-24T22:33:41.778Z,19.16
2018-08-24T22:36:10.097Z,19.12
2018-08-24T22:38:38.448Z,19.08
2018-08-24T22:41:07.003Z,19.09
2018-08-24T22:43:36.052Z,19.07
2018-08-24T22:46:04.943Z,19.04
2018-08-24T22:48:33.948Z,19.01
2018-08-24T22:51:02.494Z,18.99
2018-08-24T22:53:30.845Z,18.96
2018-08-24T22:55:59.415Z,18.92
2018-08-24T22:58:28.077Z,18.93
2018-08-24T23:00:56.718Z,18.91
2018-08-24T23:03:25.106Z,18.88
2018-08-24T23:05:53.446Z,18.89
2018-08-24T23:08:21.879Z,18.86
2018-08-24T23:10:50.267Z,18.84
2018-08-24T23:13:18.604Z,18.79
2018-08-24T23:15:46.952Z,18.75
2018-08-24T23:18:15.302Z,18.77
2018-08-24T23:20:43.664Z,18.72
2018-08-24T23:23:12.048Z,18.74
2018-08-24T23:25:40.411Z,18.75
2018-08-24T23:28:08.797Z,18.72
2018-08-24T23:30:37.140Z,18.70
2018-08-24T23:33:05.536Z,18.66
2018-08-24T23:35:33.869Z,18.64
2018-08-24T23:38:02.332Z,18.63
2018-08-24T23:40:30.677Z,18.67
2018-08-24T23:42:59.040Z,18.62
2018-08-24T23:45:27.386Z,18.60
2018-08-24T23:47:55.732Z,18.56
2018-08-24T23:50:24.072Z,18.55
2018-08-24T23:52:52.450Z,18.51
2018-08-24T23:55:20.784Z,18.49
2018-08-24T23:57:49.164Z,18.45
